Time;durP1;ratioP1;P1;durP2;ratioP2;P2;SDS_P1;SDS_P2;PMS_P1;PMS_P2;Temp;Humidity;BMP_temperature;BMP_pressure;BME280_temperature;BME280_humidity;BME280_pressure;Samples;Min_cycle;Max_cycle;Signal;HPM_P1;HPM_P2
2023/01/03 00:00:50;;;;;;;;;;;3.50;88.30;;;-151.14;100.00;62537.16;4994650;28;19928;-80
2023/01/03 00:03:18;;;;;;;;;;;3.50;88.10;;;-151.14;100.00;62537.16;4994706;28;19921;-80
2023/01/03 00:05:46;;;;;;;;;;;3.50;88.20;;;-151.14;100.00;62537.16;5010625;28;20125;-80
2023/01/03 00:08:14;;;;;;;;;;;3.50;88.10;;;-151.14;100.00;62537.16;4978673;28;19927;-81
2023/01/03 00:10:42;;;;;;;;;;;3.50;88.20;;;-151.14;100.00;62537.16;4993706;28;19932;-80
2023/01/03 00:13:11;;;;;;;;;;;3.50;88.30;;;-151.14;100.00;62537.16;4975038;28;19928;-80
2023/01/03 00:15:40;;;;;;;;;;;3.50;88.20;;;-151.14;100.00;62537.16;4992196;28;19932;-80
2023/01/03 00:18:08;;;;;;;;;;;3.50;88.40;;;-151.14;100.00;62537.16;4992479;28;20098;-80
2023/01/03 00:20:36;;;;;;;;;;;3.50;88.20;;;-151.14;100.00;62537.16;4959192;28;19922;-81
2023/01/03 00:23:04;;;;;;;;;;;3.50;88.30;;;-151.14;100.00;62537.16;4991276;28;19922;-81
2023/01/03 00:25:32;;;;;;;;;;;3.50;88.10;;;-151.14;100.00;62537.16;4974650;28;19922;-80
2023/01/03 00:28:00;;;;;;;;;;;3.50;88.30;;;2.15;100.00;62537.16;4975147;28;19929;-80
2023/01/03 00:30:27;;;;;;;;;;;3.50;88.20;;;-151.14;100.00;62537.16;4974814;28;19922;-80
2023/01/03 00:32:57;;;;;;;;;;;3.50;88.20;;;-151.14;100.00;62537.16;4959029;28;19922;-80
2023/01/03 00:35:25;;;;;;;;;;;3.50;88.10;;;-151.14;100.00;62537.16;4990504;28;19922;-80
2023/01/03 00:37:52;;;;;;;;;;;3.50;88.20;;;18.09;100.00;62537.16;4974872;28;20210;-80
2023/01/03 00:40:22;;;;;;;;;;;3.50;88.10;;;-151.14;100.00;62537.16;4958765;28;20236;-80
2023/01/03 00:45:35;;;;;;;;;;;3.50;88.30;;;-151.14;100.00;62537.16;4974232;28;19928;-80
2023/01/03 00:48:04;;;;;;;;;;;3.50;88.30;;;-151.14;100.00;62537.16;4992309;28;19922;-80
2023/01/03 00:50:32;;;;;;;;;;;3.50;88.30;;;-151.14;100.00;62537.16;4974826;28;20265;-81
2023/01/03 00:53:00;;;;;;;;;;;3.50;88.10;;;-151.14;100.00;62537.16;4974906;28;19921;-81
2023/01/03 00:55:28;;;;;;;;;;;3.50;88.10;;;-151.14;100.00;62537.16;4974180;28;19928;-81
2023/01/03 00:57:56;;;;;;;;;;;3.50;88.20;;;2.15;100.00;62537.16;4992047;28;19929;-81
2023/01/03 01:00:24;;;;;;;;;;;3.50;88.10;;;-151.14;100.00;62537.16;4974655;28;19922;-80
2023/01/03 01:02:53;;;;;;;;;;;3.50;88.10;;;-151.14;100.00;62537.16;4974702;28;20232;-81
2023/01/03 01:05:22;;;;;;;;;;;3.50;88.00;;;-151.14;100.00;62537.16;4990356;28;19922;-80
2023/01/03 01:07:50;;;;;;;;;;;3.50;88.00;;;-151.14;100.00;62537.16;4974674;28;19929;-80
2023/01/03 01:10:19;;;;;;;;;;;3.50;88.00;;;-151.14;100.00;62537.16;4974620;28;19922;-81
2023/01/03 01:12:47;;;;;;;;;;;3.50;88.00;;;-151.14;100.00;62537.16;4990895;28;19929;-81
2023/01/03 01:15:15;;;;;;;;;;;3.50;88.20;;;-151.14;100.00;62537.16;4958032;28;19922;-81
2023/01/03 01:17:43;;;;;;;;;;;3.50;88.20;;;-151.14;100.00;62537.16;4974837;28;20113;-81
2023/01/03 01:20:12;;;;;;;;;;;3.50;88.20;;;2.13;100.00;62537.16;4958427;28;19928;-81
2023/01/03 01:22:41;;;;;;;;;;;3.50;88.30;;;-151.14;100.00;62537.16;4977776;28;19921;-80
2023/01/03 01:25:09;;;;;;;;;;;3.50;88.40;;;-151.14;100.00;62537.16;4994501;28;20091;-81
2023/01/03 01:27:37;;;;;;;;;;;3.50;88.30;;;-151.14;100.00;62537.16;4978054;28;19921;-80
2023/01/03 01:30:06;;;;;;;;;;;3.50;88.10;;;-151.14;100.00;62537.16;4977649;28;19921;-80
2023/01/03 01:32:34;;;;;;;;;;;3.50;88.10;;;-151.14;100.00;62537.16;5001631;28;20213;-80
2023/01/03 01:35:02;;;;;;;;;;;3.50;88.00;;;-151.14;100.00;62537.16;4976986;28;19922;-80
2023/01/03 01:37:30;;;;;;;;;;;3.50;87.90;;;-151.14;100.00;62537.16;4977789;28;19928;-80
2023/01/03 01:39:59;;;;;;;;;;;3.50;88.00;;;-151.14;100.00;62537.16;4977576;28;19933;-80
2023/01/03 01:45:13;;;;;;;;;;;3.50;88.10;;;2.12;100.00;62537.16;4961004;28;19921;-80
2023/01/03 01:47:46;;;;;;;;;;;3.50;88.20;;;-151.14;100.00;62537.16;4993958;28;19928;-80
2023/01/03 01:50:19;;;;;;;;;;;3.50;88.20;;;-151.14;100.00;62537.16;4961397;28;20232;-80
2023/01/03 01:52:50;;;;;;;;;;;3.40;88.00;;;-151.14;100.00;62537.16;4977520;28;19928;-80
2023/01/03 01:55:24;;;;;;;;;;;3.40;88.80;;;-151.14;100.00;62537.16;4976919;28;19922;-80
2023/01/03 01:57:52;;;;;;;;;;;3.50;88.20;;;-151.14;100.00;62537.16;4964194;28;20137;-80
2023/01/03 02:00:20;;;;;;;;;;;3.50;88.20;;;-151.14;100.00;62537.16;4996837;28;19921;-80
2023/01/03 02:02:49;;;;;;;;;;;3.50;88.10;;;-151.14;100.00;62537.16;4994839;28;19928;-80
2023/01/03 02:05:17;;;;;;;;;;;3.40;87.90;;;-151.14;100.00;62537.16;4992889;28;19944;-80
2023/01/03 02:07:48;;;;;;;;;;;3.50;88.30;;;-151.14;100.00;62537.16;4977900;28;19922;-80
2023/01/03 02:10:16;;;;;;;;;;;3.50;88.20;;;-151.14;100.00;62537.16;4996439;28;19922;-80
2023/01/03 02:13:06;;;;;;;;;;;3.50;88.10;;;-151.14;100.00;62537.16;4996645;28;20206;-80
2023/01/03 02:16:10;;;;;;;;;;;3.50;88.10;;;-151.14;100.00;62537.16;4957267;28;20214;-81
2023/01/03 02:18:43;;;;;;;;;;;3.50;88.30;;;2.11;100.00;62537.16;4957723;28;19928;-80
2023/01/03 02:21:42;;;;;;;;;;;3.50;88.30;;;-151.14;100.00;62537.16;4958010;28;19928;-81
2023/01/03 02:24:31;;;;;;;;;;;3.50;88.10;;;-151.14;100.00;62537.16;4969526;28;19929;-80
2023/01/03 02:27:02;;;;;;;;;;;3.50;88.10;;;-151.14;100.00;62537.16;4957447;28;19922;-80
2023/01/03 02:30:05;;;;;;;;;;;3.50;88.20;;;-151.14;100.00;62537.16;4964989;28;20094;-81
2023/01/03 02:32:37;;;;;;;;;;;3.50;88.10;;;187.61;100.00;62537.16;5007929;28;20090;-80
2023/01/03 02:35:06;;;;;;;;;;;3.50;88.00;;;-151.14;100.00;62537.16;4979613;28;19922;-81
2023/01/03 02:37:37;;;;;;;;;;;3.50;88.10;;;-151.14;100.00;62537.16;5013699;28;19929;-80
2023/01/03 02:40:08;;;;;;;;;;;3.50;88.20;;;-151.14;100.00;62537.16;5013534;28;20098;-80
2023/01/03 02:45:33;;;;;;;;;;;3.40;88.10;;;-151.14;100.00;62537.16;4979170;28;19928;-80
2023/01/03 02:48:02;;;;;;;;;;;3.50;88.30;;;-151.14;100.00;62537.16;4996059;28;19921;-80
2023/01/03 02:50:31;;;;;;;;;;;3.50;88.10;;;-151.14;100.00;62537.16;5013386;28;19928;-81
2023/01/03 02:53:00;;;;;;;;;;;3.50;88.00;;;-151.14;100.00;62537.16;5012306;28;19928;-80
2023/01/03 02:55:30;;;;;;;;;;;3.50;88.00;;;-151.14;100.00;62537.16;4995521;28;20261;-80
2023/01/03 02:58:02;;;;;;;;;;;3.40;87.90;;;-151.14;100.00;62537.16;4995826;28;19926;-81
2023/01/03 03:00:31;;;;;;;;;;;3.40;88.00;;;-151.14;100.00;62537.16;5012250;28;20357;-80
2023/01/03 03:03:00;;;;;;;;;;;3.50;88.20;;;-151.14;100.00;62537.16;4995963;28;19928;-80
2023/01/03 03:05:29;;;;;;;;;;;3.50;88.20;;;2.11;100.00;62537.16;4995283;28;19921;-80
2023/01/03 03:07:56;;;;;;;;;;;3.50;88.20;;;-151.14;100.00;62537.16;4995562;28;19921;-80
2023/01/03 03:13:13;;;;;;;;;;;3.50;88.20;;;-151.14;100.00;62537.16;4994774;28;19928;-80
2023/01/03 03:15:46;;;;;;;;;;;3.40;88.00;;;-151.14;100.00;62537.16;4991412;28;19922;-80
2023/01/03 03:18:16;;;;;;;;;;;3.40;88.10;;;-151.14;100.00;62537.16;4992436;28;19930;-80
2023/01/03 03:26:17;;;;;;;;;;;3.40;88.10;;;-151.14;100.00;62537.16;4975714;28;19944;-80
2023/01/03 03:28:45;;;;;;;;;;;3.50;88.50;;;18.09;100.00;62537.16;4959950;28;19922;-80
2023/01/03 03:31:16;;;;;;;;;;;3.40;88.60;;;-151.14;100.00;62537.16;4976009;28;19928;-80
2023/01/03 03:33:46;;;;;;;;;;;3.40;88.60;;;2.11;100.00;62537.16;4975945;28;19922;-80
2023/01/03 03:36:16;;;;;;;;;;;3.40;88.40;;;-151.14;100.00;62537.16;4975504;28;20209;-80
2023/01/03 03:38:44;;;;;;;;;;;3.40;88.60;;;-151.14;100.00;62537.16;4975869;28;19930;-80
2023/01/03 03:46:53;;;;;;;;;;;3.40;88.40;;;-151.14;100.00;62537.16;4956309;28;20344;-80
2023/01/03 03:49:39;;;;;;;;;;;3.40;88.30;;;-151.14;100.00;62537.16;4956335;28;19923;-80
2023/01/03 03:52:10;;;;;;;;;;;3.40;88.20;;;-151.14;100.00;62537.16;4995253;28;19922;-81
2023/01/03 03:54:39;;;;;;;;;;;3.40;88.40;;;-151.14;100.00;62537.16;4994945;28;19928;-80
2023/01/03 03:57:10;;;;;;;;;;;3.40;88.40;;;-151.14;100.00;62537.16;4995155;28;19921;-80
2023/01/03 03:59:39;;;;;;;;;;;3.40;88.30;;;-151.14;100.00;62537.16;4977654;28;19921;-80
2023/01/03 04:02:08;;;;;;;;;;;3.40;88.30;;;-151.14;100.00;62537.16;4975662;28;19928;-80
2023/01/03 04:04:37;;;;;;;;;;;3.40;88.10;;;2.07;100.00;62537.16;4959146;28;20214;-80
2023/01/03 04:07:05;;;;;;;;;;;3.40;88.10;;;-151.14;100.00;62537.16;4975365;28;19921;-80
2023/01/03 04:09:33;;;;;;;;;;;3.40;88.20;;;-151.14;100.00;62537.16;4975262;28;20122;-80
2023/01/03 04:12:01;;;;;;;;;;;3.40;88.30;;;-151.14;100.00;62537.16;4975494;28;19972;-80
2023/01/03 04:14:29;;;;;;;;;;;3.40;88.30;;;-151.14;100.00;62537.16;4959274;28;19922;-80
2023/01/03 04:16:57;;;;;;;;;;;3.40;88.30;;;-151.14;100.00;62537.16;4959042;28;19922;-81
2023/01/03 04:19:26;;;;;;;;;;;3.40;88.20;;;-151.14;100.00;62537.16;4959097;28;19928;-80
2023/01/03 04:21:54;;;;;;;;;;;3.40;88.10;;;-151.14;100.00;62537.16;4959356;28;19928;-80
2023/01/03 04:24:22;;;;;;;;;;;3.40;88.00;;;2.09;100.00;62537.16;4975082;28;20116;-80
2023/01/03 04:26:50;;;;;;;;;;;3.40;88.00;;;-151.14;100.00;62537.16;4959046;28;19922;-80
2023/01/03 04:29:18;;;;;;;;;;;3.40;88.10;;;-151.14;100.00;62537.16;4974929;28;19928;-80
2023/01/03 04:31:46;;;;;;;;;;;3.40;88.90;;;-151.14;100.00;62537.16;4959131;28;19929;-80
2023/01/03 04:34:14;;;;;;;;;;;3.40;88.10;;;-151.14;100.00;62537.16;4974925;28;19922;-80
2023/01/03 04:36:43;;;;;;;;;;;3.40;88.20;;;-151.14;100.00;62537.16;4958748;28;19922;-80
2023/01/03 04:39:11;;;;;;;;;;;3.40;88.20;;;-151.14;100.00;62537.16;4975031;28;19921;-80
2023/01/03 04:41:39;;;;;;;;;;;3.40;88.30;;;-151.14;100.00;62537.16;4958912;28;19925;-80
2023/01/03 04:44:06;;;;;;;;;;;3.40;88.30;;;-151.14;100.00;62537.16;4974903;28;19922;-80
2023/01/03 04:46:35;;;;;;;;;;;3.40;88.40;;;2.05;100.00;62537.16;4958590;28;19922;-80
2023/01/03 04:49:03;;;;;;;;;;;3.40;88.40;;;-151.14;100.00;62537.16;4974836;28;19928;-80
2023/01/03 04:51:31;;;;;;;;;;;3.40;88.20;;;-151.14;100.00;62537.16;4975056;28;19921;-80
2023/01/03 04:54:00;;;;;;;;;;;3.40;88.20;;;18.10;100.00;62537.16;4974494;28;19929;-80
2023/01/03 04:56:29;;;;;;;;;;;3.40;88.10;;;2.07;100.00;62537.16;4992405;28;19922;-80
2023/01/03 04:58:57;;;;;;;;;;;3.40;88.30;;;2.06;100.00;62537.16;4978320;28;19922;-80
2023/01/03 05:01:25;;;;;;;;;;;3.40;88.30;;;-151.14;100.00;62537.16;4995489;28;19929;-80
2023/01/03 05:03:57;;;;;;;;;;;3.40;88.30;;;-151.14;100.00;62537.16;4961973;28;20232;-80
2023/01/03 05:06:25;;;;;;;;;;;3.40;88.30;;;-151.14;100.00;62537.16;4961811;28;20121;-80
2023/01/03 05:08:53;;;;;;;;;;;3.40;88.20;;;-151.14;100.00;62537.16;4994253;28;19922;-80
2023/01/03 05:11:22;;;;;;;;;;;3.40;88.30;;;-151.14;100.00;62537.16;4978033;28;19922;-80
2023/01/03 05:13:50;;;;;;;;;;;3.40;88.10;;;-151.14;100.00;62537.16;4978075;28;19922;-81
2023/01/03 05:16:18;;;;;;;;;;;3.40;88.30;;;-151.14;100.00;62537.16;4977704;28;19928;-80
2023/01/03 05:18:48;;;;;;;;;;;3.40;88.30;;;-151.14;100.00;62537.16;4977829;28;19922;-80
2023/01/03 05:26:48;;;;;;;;;;;3.40;88.10;;;-151.14;100.00;62537.16;4977719;28;19928;-80
2023/01/03 05:29:17;;;;;;;;;;;3.40;88.10;;;-151.14;100.00;62537.16;4961914;28;20210;-80
2023/01/03 05:31:45;;;;;;;;;;;3.40;88.20;;;-151.14;100.00;62537.16;4977790;28;19985;-80
2023/01/03 05:34:13;;;;;;;;;;;3.40;88.20;;;-151.14;100.00;62537.16;4977483;28;19921;-80
2023/01/03 05:36:41;;;;;;;;;;;3.40;88.00;;;2.04;100.00;62537.16;4993712;28;19997;-80
2023/01/03 05:39:09;;;;;;;;;;;3.40;88.20;;;-151.14;100.00;62537.16;4961561;28;19922;-80
2023/01/03 05:44:24;;;;;;;;;;;3.30;88.30;;;-151.14;100.00;62537.16;4961382;28;19928;-80
2023/01/03 05:46:52;;;;;;;;;;;3.40;88.10;;;-151.14;100.00;62537.16;4977532;28;19929;-81
2023/01/03 05:49:19;;;;;;;;;;;3.40;88.20;;;-151.14;100.00;62537.16;4977488;28;19928;-80
2023/01/03 05:51:47;;;;;;;;;;;3.40;88.40;;;-151.14;100.00;62537.16;4977819;28;19922;-80
2023/01/03 05:54:16;;;;;;;;;;;3.30;88.20;;;-151.14;100.00;62537.16;4961360;28;20117;-80
2023/01/03 05:56:43;;;;;;;;;;;3.40;88.30;;;-151.14;100.00;62537.16;4977422;28;19928;-80
2023/01/03 05:59:11;;;;;;;;;;;3.40;88.20;;;-151.14;100.00;62537.16;4977283;28;20103;-80
2023/01/03 06:01:41;;;;;;;;;;;3.40;88.20;;;-151.14;100.00;62537.16;4977402;28;19922;-80
2023/01/03 06:04:09;;;;;;;;;;;3.30;88.20;;;-151.14;100.00;62537.16;4961040;28;19928;-80
2023/01/03 06:06:36;;;;;;;;;;;3.40;88.30;;;2.02;100.00;62537.16;4994258;28;19922;-80
2023/01/03 06:09:04;;;;;;;;;;;3.30;88.20;;;-151.14;100.00;62537.16;4977119;28;19941;-80
2023/01/03 06:11:32;;;;;;;;;;;3.30;88.30;;;-151.14;100.00;62537.16;4977260;28;19937;-80
2023/01/03 06:14:00;;;;;;;;;;;3.40;88.30;;;-151.14;100.00;62537.16;4977095;28;19932;-80
2023/01/03 06:19:15;;;;;;;;;;;3.40;88.10;;;2.03;100.00;62537.16;4973769;28;20118;-80
2023/01/03 06:21:43;;;;;;;;;;;3.40;88.10;;;-151.14;100.00;62537.16;4958054;28;20139;-80
2023/01/03 06:24:11;;;;;;;;;;;3.40;88.20;;;-151.14;100.00;62537.16;4957508;28;19922;-80
2023/01/03 06:26:38;;;;;;;;;;;3.30;88.10;;;-151.14;100.00;62537.16;4957435;28;19922;-80
2023/01/03 06:29:06;;;;;;;;;;;3.40;88.30;;;2.02;100.00;62537.16;4957719;28;19922;-80
2023/01/03 06:31:34;;;;;;;;;;;3.40;88.30;;;-151.14;100.00;62537.16;4973642;28;19922;-80
2023/01/03 06:34:03;;;;;;;;;;;3.40;88.10;;;-151.14;100.00;62537.16;4974576;28;19922;-80
2023/01/03 06:36:33;;;;;;;;;;;3.40;88.10;;;-151.14;100.00;62537.16;4957240;28;19922;-80
2023/01/03 06:39:01;;;;;;;;;;;3.40;88.00;;;-151.14;100.00;62537.16;4957418;28;19933;-80
2023/01/03 06:41:29;;;;;;;;;;;3.30;88.20;;;-151.14;100.00;62537.16;4957543;28;19928;-80
2023/01/03 06:43:57;;;;;;;;;;;3.40;88.30;;;-151.14;100.00;62537.16;4973479;28;19928;-80
2023/01/03 06:54:52;;;;;;;;;;;3.40;88.10;;;-151.14;100.00;62537.16;4940772;28;19922;-80
2023/01/03 06:57:20;;;;;;;;;;;3.40;88.10;;;-151.14;100.00;62537.16;4957382;28;19922;-80
2023/01/03 06:59:48;;;;;;;;;;;3.40;88.00;;;18.10;100.00;62537.16;4941136;28;19929;-80
2023/01/03 07:02:16;;;;;;;;;;;3.40;88.10;;;-151.14;100.00;62537.16;4974555;28;20145;-80
2023/01/03 07:04:44;;;;;;;;;;;3.40;88.10;;;-151.14;100.00;62537.16;4990200;28;19922;-80
2023/01/03 07:07:13;;;;;;;;;;;3.40;88.10;;;-151.14;100.00;62537.16;4960426;28;19928;-81
2023/01/03 07:09:41;;;;;;;;;;;3.40;88.00;;;-151.14;100.00;62537.16;4992788;28;19948;-80
2023/01/03 07:14:51;;;;;;;;;;;3.40;88.20;;;-151.14;100.00;62537.16;4995108;28;19927;-80
2023/01/03 07:17:19;;;;;;;;;;;3.40;88.10;;;-151.14;100.00;62537.16;5012125;28;19921;-80
2023/01/03 07:19:47;;;;;;;;;;;3.40;88.00;;;-151.14;100.00;62537.16;5012306;28;19922;-80
2023/01/03 07:22:16;;;;;;;;;;;3.40;88.00;;;-151.14;100.00;62537.16;4979549;28;19928;-80
2023/01/03 07:24:44;;;;;;;;;;;3.40;88.00;;;-151.14;100.00;62537.16;4978781;28;20148;-80
2023/01/03 07:27:12;;;;;;;;;;;3.40;88.00;;;-151.14;100.00;62537.16;4995489;28;19921;-80
2023/01/03 07:29:40;;;;;;;;;;;3.40;88.00;;;-151.14;100.00;62537.16;5011585;28;20209;-80
2023/01/03 07:32:08;;;;;;;;;;;3.40;88.00;;;-151.14;100.00;62537.16;4995386;28;19921;-80
2023/01/03 07:34:36;;;;;;;;;;;3.50;88.10;;;-151.14;100.00;62537.16;4995322;28;19936;-80
2023/01/03 07:37:04;;;;;;;;;;;3.50;88.00;;;-151.14;100.00;62537.16;4994899;28;19928;-80
2023/01/03 07:39:33;;;;;;;;;;;3.40;88.60;;;-151.14;100.00;62537.16;4979016;28;19921;-80
2023/01/03 07:44:46;;;;;;;;;;;3.50;87.50;;;2.20;100.00;62537.16;4994799;28;19921;-80
2023/01/03 07:47:14;;;;;;;;;;;3.50;87.70;;;-151.14;100.00;62537.16;4979026;28;19929;-80
2023/01/03 07:49:42;;;;;;;;;;;3.60;88.00;;;-151.14;100.00;62537.16;5012435;28;19922;-80
2023/01/03 07:52:10;;;;;;;;;;;3.60;88.00;;;-151.14;100.00;62537.16;4979051;28;19922;-80
2023/01/03 07:54:40;;;;;;;;;;;3.60;87.90;;;-151.14;100.00;62537.16;4994797;28;19922;-80
2023/01/03 07:57:07;;;;;;;;;;;3.60;87.70;;;18.10;100.00;62537.16;4995048;28;19928;-80
2023/01/03 07:59:35;;;;;;;;;;;3.70;87.60;;;-151.14;100.00;62537.16;4994930;28;20232;-80
2023/01/03 08:02:03;;;;;;;;;;;3.70;87.50;;;-151.14;100.00;62537.16;5011317;28;19928;-80
2023/01/03 08:04:31;;;;;;;;;;;3.70;87.30;;;2.37;100.00;62537.16;5012156;28;19930;-80
2023/01/03 08:06:59;;;;;;;;;;;3.70;87.20;;;-151.14;100.00;62537.16;4994780;28;19925;-80
2023/01/03 08:14:58;;;;;;;;;;;3.80;87.10;;;-151.14;100.00;62537.16;4974885;28;20214;-80
2023/01/03 08:17:27;;;;;;;;;;;3.80;87.10;;;-151.14;100.00;62537.16;4959371;28;19928;-80
2023/01/03 08:19:55;;;;;;;;;;;3.80;87.00;;;-151.14;100.00;62537.16;4959189;28;19922;-80
2023/01/03 08:22:23;;;;;;;;;;;3.80;86.90;;;-151.14;100.00;62537.16;4959156;28;19921;-80
2023/01/03 08:24:50;;;;;;;;;;;3.80;86.80;;;-151.14;100.00;62537.16;4958778;28;19922;-80
2023/01/03 08:27:20;;;;;;;;;;;3.80;86.80;;;-151.14;100.00;62537.16;4975411;28;19922;-80
2023/01/03 08:29:48;;;;;;;;;;;3.90;86.90;;;-151.14;100.00;62537.16;4974669;28;19922;-80
2023/01/03 08:32:15;;;;;;;;;;;3.90;86.80;;;-151.14;100.00;62537.16;4974729;28;20364;-80
2023/01/03 08:34:47;;;;;;;;;;;3.90;86.70;;;-151.14;100.00;62537.16;4990800;28;19922;-80
2023/01/03 08:37:15;;;;;;;;;;;4.00;86.60;;;-151.14;100.00;62537.16;4959223;28;19922;-80
2023/01/03 08:39:48;;;;;;;;;;;4.00;86.60;;;-151.14;100.00;62537.16;4958644;28;19932;-81
2023/01/03 08:42:19;;;;;;;;;;;4.00;86.60;;;-151.14;100.00;62537.16;4959017;28;19922;-81
2023/01/03 08:44:48;;;;;;;;;;;4.10;86.60;;;-151.14;100.00;62537.16;4996002;28;19928;-81
2023/01/03 08:47:16;;;;;;;;;;;4.10;86.40;;;-151.14;100.00;62537.16;4994299;28;19921;-80
2023/01/03 08:49:44;;;;;;;;;;;4.10;86.30;;;-151.14;100.00;62537.16;4977908;28;20256;-80
2023/01/03 08:52:12;;;;;;;;;;;4.10;86.20;;;-151.14;100.00;62537.16;4994246;28;19936;-81
2023/01/03 08:54:40;;;;;;;;;;;4.20;86.00;;;-151.14;100.00;62537.16;4975229;28;19921;-80
2023/01/03 08:57:08;;;;;;;;;;;4.20;86.00;;;-151.14;100.00;62537.16;4974959;28;20217;-80
2023/01/03 08:59:35;;;;;;;;;;;4.20;85.90;;;-151.14;100.00;62537.16;4958646;28;19922;-81
2023/01/03 09:02:05;;;;;;;;;;;4.20;85.80;;;-151.14;100.00;62537.16;4958866;28;19929;-81
2023/01/03 09:04:33;;;;;;;;;;;4.20;85.70;;;-151.14;100.00;62537.16;4974713;28;19937;-81
2023/01/03 09:07:00;;;;;;;;;;;4.30;85.70;;;-151.14;100.00;62537.16;4974053;28;20497;-81
2023/01/03 09:09:28;;;;;;;;;;;4.30;85.70;;;-151.14;100.00;62537.16;4974650;28;19944;-81
2023/01/03 09:11:56;;;;;;;;;;;4.30;85.60;;;-151.14;100.00;62537.16;4974962;28;19921;-81
2023/01/03 09:14:25;;;;;;;;;;;4.30;85.50;;;-151.14;100.00;62537.16;4974277;28;19921;-80
2023/01/03 09:16:52;;;;;;;;;;;4.30;85.50;;;-151.14;100.00;62537.16;4974152;28;19922;-81
2023/01/03 09:19:22;;;;;;;;;;;4.30;85.40;;;2.99;100.00;62537.16;4974398;28;19928;-80
2023/01/03 09:21:50;;;;;;;;;;;4.30;85.30;;;-151.14;100.00;62537.16;4958480;28;19922;-80
2023/01/03 09:24:18;;;;;;;;;;;4.30;85.30;;;-151.14;100.00;62537.16;4974397;28;19928;-80
2023/01/03 09:26:45;;;;;;;;;;;4.30;85.20;;;3.00;100.00;62537.16;4988920;28;19921;-81
2023/01/03 09:29:13;;;;;;;;;;;4.30;85.10;;;-151.14;100.00;62537.16;4994005;28;19921;-81
2023/01/03 09:31:41;;;;;;;;;;;4.40;85.10;;;3.00;100.00;62537.16;4993453;28;20232;-81
2023/01/03 09:34:09;;;;;;;;;;;4.30;85.10;;;3.00;100.00;62537.16;4970866;28;19922;-81
2023/01/03 09:36:39;;;;;;;;;;;4.40;85.10;;;-151.14;100.00;62537.16;4986243;28;20232;-81
2023/01/03 09:39:07;;;;;;;;;;;4.40;85.00;;;-151.14;100.00;62537.16;4977284;28;19928;-81
2023/01/03 09:41:35;;;;;;;;;;;4.40;85.00;;;3.03;100.00;62537.16;4977714;28;19926;-81
2023/01/03 09:44:03;;;;;;;;;;;4.40;85.00;;;3.02;100.00;62537.16;4996698;28;20112;-81
2023/01/03 09:46:31;;;;;;;;;;;4.40;85.00;;;-151.14;100.00;62537.16;4980722;28;19921;-81
2023/01/03 09:48:59;;;;;;;;;;;4.40;85.00;;;-151.14;100.00;62537.16;4997069;28;20116;-81
2023/01/03 10:05:50;;;;;;;;;;;4.40;84.60;;;-151.14;100.00;62537.16;4996142;28;19921;-81
2023/01/03 10:08:25;;;;;;;;;;;4.40;84.60;;;-151.14;100.00;62537.16;4996886;28;19937;-81
2023/01/03 10:10:57;;;;;;;;;;;4.40;84.60;;;-151.14;100.00;62537.16;4996352;28;19922;-80
2023/01/03 10:13:30;;;;;;;;;;;4.40;84.60;;;-151.14;100.00;62537.16;4980554;28;19921;-81
2023/01/03 10:16:01;;;;;;;;;;;4.40;84.70;;;-151.14;100.00;62537.16;4979732;28;19944;-80
2023/01/03 10:18:42;;;;;;;;;;;4.40;84.60;;;-151.14;100.00;62537.16;4996409;28;20106;-81
2023/01/03 10:21:13;;;;;;;;;;;4.40;84.70;;;-151.14;100.00;62537.16;5013792;28;19922;-81
2023/01/03 10:23:47;;;;;;;;;;;4.40;84.70;;;3.05;100.00;62537.16;4996333;28;20141;-80
2023/01/03 10:26:24;;;;;;;;;;;4.40;84.70;;;-151.14;100.00;62537.16;4996439;28;19928;-80
2023/01/03 10:28:52;;;;;;;;;;;4.40;84.70;;;-151.14;100.00;62537.16;4996333;28;19928;-80
2023/01/03 10:31:34;;;;;;;;;;;4.40;84.60;;;-151.14;100.00;62537.16;4996281;28;19922;-80
2023/01/03 10:34:02;;;;;;;;;;;4.40;84.70;;;-151.14;100.00;62537.16;4996264;28;19928;-80
2023/01/03 10:36:30;;;;;;;;;;;4.40;84.80;;;-151.14;100.00;62537.16;4995924;28;19922;-80
2023/01/03 10:39:05;;;;;;;;;;;4.40;84.80;;;-151.14;100.00;62537.16;5012630;28;19921;-80
2023/01/03 10:41:39;;;;;;;;;;;4.40;84.80;;;-151.14;100.00;62537.16;4980076;28;19921;-80
2023/01/03 10:44:07;;;;;;;;;;;4.40;84.80;;;-151.14;100.00;62537.16;4979607;28;20213;-80
2023/01/03 10:46:35;;;;;;;;;;;4.40;84.90;;;-151.14;100.00;62537.16;4995721;28;19928;-80
2023/01/03 10:49:13;;;;;;;;;;;4.40;85.00;;;-151.14;100.00;62537.16;4979978;28;19921;-80
2023/01/03 10:51:43;;;;;;;;;;;4.40;85.00;;;3.00;100.00;62537.16;4979962;28;20245;-80
2023/01/03 10:54:12;;;;;;;;;;;4.40;84.90;;;-151.14;100.00;62537.16;4978765;28;19928;-81
2023/01/03 10:56:41;;;;;;;;;;;4.40;85.00;;;-151.14;100.00;62537.16;5011999;28;19929;-80
2023/01/03 10:59:15;;;;;;;;;;;4.40;84.90;;;-151.14;100.00;62537.16;4995977;28;19922;-80
2023/01/03 11:01:57;;;;;;;;;;;4.40;84.90;;;-151.14;100.00;62537.16;5013376;28;19944;-80
2023/01/03 11:04:24;;;;;;;;;;;4.40;84.90;;;2.98;100.00;62537.16;4995694;28;19928;-80
2023/01/03 11:07:04;;;;;;;;;;;4.40;85.00;;;-151.14;100.00;62537.16;4995518;28;19928;-80
2023/01/03 11:09:35;;;;;;;;;;;4.40;84.90;;;2.98;100.00;62537.16;5013415;28;19927;-80
2023/01/03 11:12:06;;;;;;;;;;;4.30;85.00;;;-151.14;100.00;62537.16;5012125;28;19922;-80
2023/01/03 11:14:34;;;;;;;;;;;4.30;85.00;;;-151.14;100.00;62537.16;4995321;28;20377;-80
2023/01/03 11:17:02;;;;;;;;;;;4.30;85.00;;;-151.14;100.00;62537.16;4995337;28;19921;-80
2023/01/03 11:19:31;;;;;;;;;;;4.30;85.00;;;-151.14;100.00;62537.16;4979032;28;19928;-80
2023/01/03 11:22:04;;;;;;;;;;;4.30;85.10;;;-151.14;100.00;62537.16;5013132;28;19921;-80
2023/01/03 11:24:57;;;;;;;;;;;4.30;85.10;;;-151.14;100.00;62537.16;4995247;28;19921;-80
2023/01/03 11:27:37;;;;;;;;;;;4.30;85.10;;;-151.14;100.00;62537.16;4985802;28;20210;-80
2023/01/03 11:30:15;;;;;;;;;;;4.30;85.20;;;-151.14;100.00;62537.16;4975558;28;19922;-80
2023/01/03 11:32:51;;;;;;;;;;;4.30;85.20;;;-151.14;100.00;62537.16;4992121;28;19926;-80
2023/01/03 11:35:31;;;;;;;;;;;4.30;85.30;;;18.09;100.00;62537.16;4975316;28;19922;-80
2023/01/03 11:38:04;;;;;;;;;;;4.30;85.20;;;-151.14;100.00;62537.16;4975871;28;19922;-80
2023/01/03 11:40:36;;;;;;;;;;;4.30;85.20;;;-151.14;100.00;62537.16;4991776;28;19922;-80
2023/01/03 11:43:16;;;;;;;;;;;4.30;85.30;;;-151.14;100.00;62537.16;4999671;28;19931;-80
2023/01/03 11:45:53;;;;;;;;;;;4.20;85.30;;;-151.14;100.00;62537.16;4994692;28;19925;-80
2023/01/03 11:48:29;;;;;;;;;;;4.20;85.30;;;-151.14;100.00;62537.16;5011651;28;19936;-80
2023/01/03 11:50:59;;;;;;;;;;;4.20;85.40;;;-151.14;100.00;62537.16;5012569;28;19941;-80
2023/01/03 11:53:34;;;;;;;;;;;4.20;85.50;;;-151.14;100.00;62537.16;4994900;28;19944;-80
2023/01/03 11:56:14;;;;;;;;;;;4.20;85.50;;;-151.14;100.00;62537.16;4994673;28;19930;-80
2023/01/03 11:59:15;;;;;;;;;;;4.20;85.50;;;-151.14;100.00;62537.16;4968269;28;19928;-80
2023/01/03 12:02:24;;;;;;;;;;;4.20;85.60;;;2.84;100.00;62537.16;4975481;28;20233;-80
2023/01/03 12:04:57;;;;;;;;;;;4.20;85.60;;;-151.14;100.00;62537.16;4934826;28;19928;-80
2023/01/03 12:07:26;;;;;;;;;;;4.20;85.70;;;-151.14;100.00;62537.16;4991798;28;19922;-80
2023/01/03 12:09:56;;;;;;;;;;;4.20;85.70;;;-151.14;100.00;62537.16;4992222;28;19922;-80
2023/01/03 12:12:32;;;;;;;;;;;4.20;85.80;;;2.83;100.00;62537.16;4992949;28;19922;-80
2023/01/03 12:15:03;;;;;;;;;;;4.20;85.80;;;-151.14;100.00;62537.16;4992157;28;19929;-80
2023/01/03 12:17:39;;;;;;;;;;;4.10;85.70;;;-151.14;100.00;62537.16;4975324;28;19928;-80
2023/01/03 12:20:10;;;;;;;;;;;4.20;85.80;;;-151.14;100.00;62537.16;4975013;28;19922;-80
2023/01/03 12:22:40;;;;;;;;;;;4.20;85.80;;;-151.14;100.00;62537.16;4975562;28;19922;-80
2023/01/03 12:25:17;;;;;;;;;;;4.10;85.80;;;2.78;100.00;62537.16;4974231;28;19989;-80